Terminal Aerodrome Forecast
Issued by NWS Wichita, KS

Home | Current Version | Previous Version | Text Only | Print | Product List | Glossary On
Versions: 1 2 3 4 5 6 7 8 9 10 11 12 13 14 15 16 17 18 19 20 21 22 23
000
FTUS43 KICT 271742
TAFICT
TAF
KICT 271742Z 2718/2818 11009KT P6SM BKN015 OVC025
     FM272100 15012KT P6SM VCTS SCT025 BKN035CB
      TEMPO 2721/2724 VRB25G35KT 4SM TSRA BKN025CB
     FM280100 19007KT P6SM SCT035 BKN250
     FM280900 17005KT 5SM BR SCT015=

USA.gov is the U.S. government's official web portal to all federal, state and local government web resources and services.